CheckWX is a tool to help pilots better visualize weather data.  It is not intended as a substitute for an official pre-flight weather briefing.

12:36:33 UTC

ENQR METAR
Snorre B Oilp
Snorre B Oilp, Norway
Current

47 mins ago

ENQR 161150Z AUTO 01009KT 9999NDV FEW026/// 12/10 Q1016 W///S3
Observed
Jul-16 @ 11:50 UTC
Wind
  • 010° at 9 KTS
Visibility
Cloud Levels
  • Few at 2,600' AGL
Temperature
12°C / 54°F
Dewpoint
10°C / 50°F
Humidity
88%
Altimeter
30" Hg
Pressure
1015.92 hPa
Previous

1 hour ago

ENQR 161120Z AUTO 36009KT 9999NDV NCD 12/10 Q1016 W///S3
Observed
Jul-16 @ 11:20 UTC
Wind
  • 360° at 9 KTS
Visibility
Cloud Levels
  • Clear skies
Temperature
12°C / 54°F
Dewpoint
10°C / 50°F
Humidity
88%
Altimeter
30" Hg
Pressure
1015.92 hPa
Previous

2 hours ago

ENQR 161050Z AUTO 36008KT 9999NDV FEW023/// 12/10 Q1016 W///S3
Observed
Jul-16 @ 10:50 UTC
Wind
  • 360° at 8 KTS
Visibility
Cloud Levels
  • Few at 2,300' AGL
Temperature
12°C / 54°F
Dewpoint
10°C / 50°F
Humidity
88%
Altimeter
30" Hg
Pressure
1015.92 hPa